Time;durP1;ratioP1;P1;durP2;ratioP2;P2;SDS_P1;SDS_P2;PMS_P1;PMS_P2;Temp;Humidity;BMP_temperature;BMP_pressure;BME280_temperature;BME280_humidity;BME280_pressure;Samples;Min_cycle;Max_cycle;Signal;HPM_P1;HPM_P2
2023/03/03 00:01:29;;;;;;;0.80;0.80;;;-0.60;99.90;;;;;;5073637;28;20200;-77
2023/03/03 00:03:55;;;;;;;0.70;0.70;;;-0.50;99.90;;;;;;5073858;28;20207;-77
2023/03/03 00:06:20;;;;;;;0.68;0.68;;;-0.10;99.90;;;;;;5073667;28;20193;-79
2023/03/03 00:08:47;;;;;;;0.70;0.70;;;-0.10;99.90;;;;;;5073893;28;20220;-79
2023/03/03 00:11:13;;;;;;;0.70;0.70;;;0.10;99.90;;;;;;5073894;28;20710;-80
2023/03/03 00:13:46;;;;;;;0.70;0.70;;;0.00;99.90;;;;;;5055688;28;20663;-80
2023/03/03 00:16:16;;;;;;;0.88;0.88;;;-0.10;99.90;;;;;;5073633;28;20185;-80
2023/03/03 00:18:46;;;;;;;0.63;0.63;;;-0.20;99.90;;;;;;5055529;28;20193;-80
2023/03/03 00:21:30;;;;;;;0.60;0.60;;;-0.20;99.90;;;;;;5073477;28;20193;-77
2023/03/03 00:24:15;;;;;;;0.68;0.68;;;-0.20;99.90;;;;;;5073629;28;20195;-77
2023/03/03 00:26:45;;;;;;;0.60;0.60;;;-0.30;99.90;;;;;;5073612;28;20280;-77
2023/03/03 00:29:36;;;;;;;0.63;0.63;;;-0.20;99.90;;;;;;5055505;28;20217;-78
2023/03/03 00:32:11;;;;;;;0.60;0.60;;;0.20;99.90;;;;;;5073486;28;20193;-78
2023/03/03 00:34:37;;;;;;;0.77;0.77;;;0.30;99.90;;;;;;5070661;28;20216;-78
2023/03/03 00:37:18;;;;;;;0.70;0.70;;;0.30;99.90;;;;;;5073405;28;20196;-77
2023/03/03 00:39:44;;;;;;;0.70;0.70;;;0.30;99.90;;;;;;5073259;28;20196;-77
2023/03/03 00:42:15;;;;;;;0.88;0.88;;;0.10;99.90;;;;;;5055339;28;20197;-80
2023/03/03 00:44:57;;;;;;;0.60;0.60;;;0.00;99.90;;;;;;5082099;28;20199;-81
2023/03/03 00:47:29;;;;;;;0.60;0.60;;;-0.10;99.90;;;;;;5093234;28;20252;-80
2023/03/03 00:50:05;;;;;;;0.50;0.50;;;-0.10;99.90;;;;;;5075249;28;20188;-80
2023/03/03 00:52:52;;;;;;;0.60;0.60;;;0.00;99.90;;;;;;5093075;28;20188;-80
2023/03/03 00:55:18;;;;;;;0.70;0.70;;;-0.10;99.90;;;;;;5068807;28;20220;-81
2023/03/03 00:57:43;;;;;;;0.70;0.70;;;-0.10;99.90;;;;;;5072887;28;20243;-81
2023/03/03 01:00:10;;;;;;;0.60;0.60;;;0.00;99.90;;;;;;5072867;28;20205;-78
2023/03/03 01:02:36;;;;;;;0.60;0.60;;;0.00;99.90;;;;;;5072463;28;20561;-77
2023/03/03 01:05:01;;;;;;;0.70;0.70;;;-0.10;99.90;;;;;;5072780;28;20235;-77
2023/03/03 01:07:27;;;;;;;0.60;0.60;;;0.00;99.90;;;;;;5072645;28;20201;-77
2023/03/03 01:09:53;;;;;;;0.50;0.50;;;0.00;99.90;;;;;;5054978;28;20201;-77
2023/03/03 01:12:18;;;;;;;0.60;0.60;;;-0.10;99.90;;;;;;5054641;28;20274;-77
2023/03/03 01:14:44;;;;;;;0.60;0.60;;;0.00;99.90;;;;;;5072792;28;20249;-77
2023/03/03 01:17:10;;;;;;;0.47;0.47;;;-0.10;99.90;;;;;;5072662;28;20204;-78
2023/03/03 01:19:36;;;;;;;0.65;0.65;;;-0.20;99.90;;;;;;5072363;28;20562;-78
2023/03/03 01:22:01;;;;;;;0.60;0.60;;;-0.30;99.90;;;;;;5072678;28;20211;-78
2023/03/03 01:24:27;;;;;;;0.57;0.57;;;-0.20;99.90;;;;;;5072275;28;20271;-77
2023/03/03 01:26:53;;;;;;;5.18;2.25;;;-0.10;99.90;;;;;;5073006;28;20200;-78
2023/03/03 01:29:19;;;;;;;0.60;0.60;;;-0.10;99.90;;;;;;5072256;28;20205;-77
2023/03/03 01:31:44;;;;;;;0.60;0.60;;;0.10;99.90;;;;;;5072551;28;20556;-77
2023/03/03 01:34:10;;;;;;;1.35;1.17;;;0.40;99.90;;;;;;5055841;28;20276;-78
2023/03/03 01:36:36;;;;;;;0.50;0.50;;;0.60;99.90;;;;;;5052246;28;20243;-78
2023/03/03 01:39:02;;;;;;;0.70;0.70;;;0.90;99.90;;;;;;5052523;28;20197;-78
2023/03/03 01:41:31;;;;;;;0.63;0.63;;;1.00;99.90;;;;;;5061196;28;20208;-78
2023/03/03 01:43:56;;;;;;;0.70;0.70;;;1.00;99.90;;;;;;5092709;28;20218;-77
2023/03/03 01:46:41;;;;;;;0.57;0.57;;;0.90;99.90;;;;;;5092216;28;20701;-78
2023/03/03 01:49:16;;;;;;;0.50;0.50;;;0.90;99.90;;;;;;5092472;28;20199;-77
2023/03/03 01:51:47;;;;;;;0.50;0.50;;;1.20;99.90;;;;;;5085276;28;20710;-77
2023/03/03 01:54:28;;;;;;;0.50;0.50;;;1.30;99.90;;;;;;5072303;28;20193;-77
2023/03/03 01:56:59;;;;;;;0.70;0.70;;;1.40;99.90;;;;;;5072404;28;20579;-78
2023/03/03 01:59:33;;;;;;;0.60;0.60;;;1.40;99.90;;;;;;5054006;28;20201;-77
2023/03/03 02:04:31;;;;;;;0.82;0.82;;;1.60;99.90;;;;;;5065555;28;20225;-69
2023/03/03 02:07:09;;;;;;;0.60;0.60;;;1.60;99.90;;;;;;5058430;28;20246;-69
2023/03/03 02:09:47;;;;;;;0.70;0.70;;;1.60;99.90;;;;;;5058054;28;20684;-68
2023/03/03 02:12:16;;;;;;;0.60;0.60;;;1.60;99.90;;;;;;5076274;28;20193;-68
2023/03/03 02:14:41;;;;;;;1.73;1.40;;;1.60;99.90;;;;;;5075663;28;20196;-68
2023/03/03 02:17:07;;;;;;;0.60;0.60;;;1.50;99.90;;;;;;5076069;28;20200;-68
2023/03/03 02:19:50;;;;;;;0.70;0.70;;;1.50;99.90;;;;;;5075903;28;20584;-69
2023/03/03 02:22:21;;;;;;;0.60;0.60;;;1.40;99.90;;;;;;5075940;28;20192;-69
2023/03/03 02:24:58;;;;;;;0.60;0.60;;;1.50;99.90;;;;;;5058077;28;20670;-69
2023/03/03 02:27:27;;;;;;;0.60;0.60;;;1.50;99.90;;;;;;5075612;28;20208;-69
2023/03/03 02:29:53;;;;;;;0.60;0.60;;;1.50;99.90;;;;;;5075881;28;20189;-69
2023/03/03 02:32:19;;;;;;;0.60;0.60;;;1.60;99.90;;;;;;5074327;28;20192;-69
2023/03/03 02:34:50;;;;;;;0.50;0.50;;;1.90;99.90;;;;;;5055713;28;20242;-70
2023/03/03 02:37:16;;;;;;;0.60;0.60;;;1.90;99.90;;;;;;5065418;28;20699;-70
2023/03/03 02:39:43;;;;;;;0.60;0.60;;;1.90;99.90;;;;;;5075641;28;20197;-70
2023/03/03 02:42:13;;;;;;;0.60;0.60;;;2.00;99.90;;;;;;5075570;28;20193;-70
2023/03/03 02:44:39;;;;;;;0.70;0.70;;;1.90;99.90;;;;;;5075436;28;20192;-69
2023/03/03 02:47:06;;;;;;;0.63;0.63;;;1.80;99.90;;;;;;5075606;28;20189;-68
2023/03/03 02:49:33;;;;;;;0.70;0.70;;;1.90;99.90;;;;;;5075057;28;20207;-68
2023/03/03 02:52:01;;;;;;;0.70;0.70;;;1.90;99.90;;;;;;5075563;28;20652;-68
2023/03/03 02:54:29;;;;;;;0.50;0.50;;;1.90;99.90;;;;;;5075206;28;20647;-69
2023/03/03 02:56:55;;;;;;;0.60;0.60;;;2.00;99.90;;;;;;5075435;28;20599;-68
2023/03/03 02:59:21;;;;;;;0.60;0.60;;;2.00;99.90;;;;;;5075022;28;20193;-71
2023/03/03 03:01:48;;;;;;;0.65;0.65;;;2.00;99.90;;;;;;5074363;28;20204;-68
2023/03/03 03:04:20;;;;;;;0.60;0.60;;;1.80;99.90;;;;;;5075285;28;20235;-68
2023/03/03 03:06:46;;;;;;;0.60;0.60;;;2.00;99.90;;;;;;5075360;28;20243;-68
2023/03/03 03:09:13;;;;;;;2.15;1.92;;;2.00;99.90;;;;;;5074917;28;20208;-68
2023/03/03 03:11:39;;;;;;;0.52;0.52;;;2.00;99.90;;;;;;5074850;28;20201;-69
2023/03/03 03:14:06;;;;;;;0.50;0.50;;;1.90;99.90;;;;;;5075024;28;20227;-68
2023/03/03 03:16:33;;;;;;;2.47;2.05;;;2.00;99.90;;;;;;5073891;28;20220;-68
2023/03/03 03:19:00;;;;;;;0.63;0.63;;;2.00;99.90;;;;;;5075123;28;20306;-68
2023/03/03 03:21:26;;;;;;;0.60;0.60;;;2.00;99.90;;;;;;5074639;28;20392;-68
2023/03/03 03:23:51;;;;;;;0.50;0.50;;;1.90;99.90;;;;;;5074952;28;20204;-68
2023/03/03 03:26:19;;;;;;;0.65;0.65;;;1.80;99.90;;;;;;5056837;28;20197;-68
2023/03/03 03:28:46;;;;;;;0.50;0.50;;;1.70;99.90;;;;;;5074721;28;20237;-69
2023/03/03 03:31:12;;;;;;;0.57;0.57;;;1.60;99.90;;;;;;5074751;28;20279;-68
2023/03/03 03:33:37;;;;;;;0.57;0.57;;;1.50;99.90;;;;;;5053074;28;20328;-69
2023/03/03 03:36:05;;;;;;;0.60;0.60;;;1.30;99.90;;;;;;5054619;28;20197;-68
2023/03/03 03:38:31;;;;;;;0.70;0.70;;;1.10;99.90;;;;;;5054391;28;20314;-69
2023/03/03 03:40:57;;;;;;;0.90;0.90;;;1.00;99.90;;;;;;5036679;28;20288;-69
2023/03/03 03:43:23;;;;;;;0.65;0.65;;;0.90;99.90;;;;;;5036350;28;20703;-69
2023/03/03 03:45:49;;;;;;;0.60;0.60;;;0.80;99.90;;;;;;5074631;28;20197;-68
2023/03/03 03:48:16;;;;;;;0.60;0.60;;;0.70;99.90;;;;;;5074382;28;20224;-69
2023/03/03 03:50:42;;;;;;;0.52;0.52;;;0.60;99.90;;;;;;5074390;28;20278;-69
2023/03/03 03:53:08;;;;;;;0.60;0.60;;;0.40;99.90;;;;;;5074323;28;20255;-68
2023/03/03 03:55:33;;;;;;;0.70;0.70;;;0.30;99.90;;;;;;5074199;28;20663;-68
2023/03/03 03:57:59;;;;;;;0.70;0.70;;;0.20;99.90;;;;;;5074358;28;20272;-68
2023/03/03 04:00:25;;;;;;;0.60;0.60;;;0.10;99.90;;;;;;5073687;28;20205;-69
2023/03/03 04:02:51;;;;;;;0.70;0.70;;;0.00;99.90;;;;;;5072791;28;20295;-68
2023/03/03 04:05:17;;;;;;;0.60;0.60;;;0.00;99.90;;;;;;5074144;28;20280;-68
2023/03/03 04:07:43;;;;;;;0.60;0.60;;;0.20;99.90;;;;;;5073695;28;20240;-68
2023/03/03 04:10:10;;;;;;;0.63;0.63;;;0.30;99.90;;;;;;5073841;28;20216;-69
2023/03/03 04:12:39;;;;;;;0.70;0.70;;;0.20;99.90;;;;;;5073777;28;20591;-69
2023/03/03 04:15:06;;;;;;;0.60;0.60;;;0.20;99.90;;;;;;5073937;28;20184;-70
2023/03/03 04:17:31;;;;;;;0.60;0.60;;;0.00;99.90;;;;;;5054774;28;20245;-68
2023/03/03 04:19:57;;;;;;;0.52;0.52;;;-0.10;99.90;;;;;;5073040;28;20765;-68
2023/03/03 04:22:23;;;;;;;0.57;0.57;;;-0.30;99.90;;;;;;5073451;28;20246;-68
2023/03/03 04:24:48;;;;;;;0.60;0.60;;;-0.50;99.90;;;;;;5073717;28;20263;-68
2023/03/03 04:27:14;;;;;;;0.50;0.50;;;-0.60;99.90;;;;;;5073521;28;20588;-68
2023/03/03 04:29:40;;;;;;;0.70;0.70;;;-0.70;99.90;;;;;;5073321;28;20193;-68
2023/03/03 04:32:06;;;;;;;0.60;0.60;;;-0.70;99.90;;;;;;5055636;28;20203;-68
2023/03/03 04:34:32;;;;;;;0.70;0.70;;;-0.70;99.90;;;;;;5073085;28;20652;-68
2023/03/03 04:36:58;;;;;;;0.70;0.70;;;-0.80;99.90;;;;;;5080714;28;20207;-68
2023/03/03 04:39:24;;;;;;;0.60;0.60;;;-0.50;99.90;;;;;;5093474;28;20196;-69
2023/03/03 04:41:49;;;;;;;0.70;0.70;;;-0.40;99.90;;;;;;5074815;28;20540;-69
2023/03/03 04:44:15;;;;;;;0.60;0.60;;;-0.50;99.90;;;;;;5073257;28;20200;-69
2023/03/03 04:46:41;;;;;;;0.50;0.50;;;-0.50;99.90;;;;;;5073084;28;20250;-68
2023/03/03 04:49:07;;;;;;;0.60;0.60;;;-0.50;99.90;;;;;;5055173;28;20212;-68
2023/03/03 04:51:34;;;;;;;0.70;0.70;;;-0.50;99.90;;;;;;5072922;28;20278;-68
2023/03/03 04:54:00;;;;;;;0.70;0.70;;;-0.50;99.90;;;;;;5073088;28;20196;-69
2023/03/03 04:56:27;;;;;;;0.60;0.60;;;-0.50;99.90;;;;;;5072827;28;20189;-68
2023/03/03 04:58:53;;;;;;;0.70;0.70;;;-0.50;99.90;;;;;;5073090;28;20192;-68
2023/03/03 05:01:18;;;;;;;0.60;0.60;;;-0.50;99.90;;;;;;5072995;28;20196;-69
2023/03/03 05:03:44;;;;;;;0.60;0.60;;;-0.50;99.90;;;;;;5054783;28;20224;-68
2023/03/03 05:06:10;;;;;;;0.77;0.77;;;-0.50;99.90;;;;;;5072820;28;20224;-68
2023/03/03 05:08:36;;;;;;;0.63;0.63;;;-0.50;99.90;;;;;;5054947;28;20213;-69
2023/03/03 05:11:03;;;;;;;0.50;0.50;;;-0.40;99.90;;;;;;5054841;28;20283;-69
2023/03/03 05:13:28;;;;;;;0.63;0.63;;;-0.50;99.90;;;;;;5072583;28;20193;-68
2023/03/03 05:15:55;;;;;;;0.68;0.68;;;-0.50;99.90;;;;;;5054696;28;20216;-68
2023/03/03 05:18:22;;;;;;;0.70;0.70;;;-0.50;99.90;;;;;;5072420;28;20686;-68
2023/03/03 05:20:49;;;;;;;0.57;0.57;;;-0.50;99.90;;;;;;5072745;28;20196;-68
2023/03/03 05:23:15;;;;;;;0.63;0.63;;;-0.50;99.90;;;;;;5054707;28;20209;-69
2023/03/03 05:25:41;;;;;;;0.70;0.70;;;-0.50;99.90;;;;;;5072441;28;20205;-68
2023/03/03 05:28:08;;;;;;;0.60;0.60;;;-0.50;99.90;;;;;;5054561;28;20213;-66
2023/03/03 05:30:35;;;;;;;0.63;0.63;;;-0.50;99.90;;;;;;5072358;28;20280;-66
2023/03/03 05:33:01;;;;;;;0.55;0.55;;;-0.50;99.90;;;;;;5076550;28;20196;-67
2023/03/03 05:35:27;;;;;;;0.70;0.70;;;-0.50;99.90;;;;;;5092518;28;20213;-67
2023/03/03 05:37:53;;;;;;;0.63;0.63;;;-0.50;99.90;;;;;;5075708;28;20197;-67
2023/03/03 05:40:19;;;;;;;0.70;0.70;;;-0.50;99.90;;;;;;5071838;28;20280;-68
2023/03/03 05:42:45;;;;;;;0.60;0.60;;;-0.50;99.90;;;;;;5054822;28;20236;-68
2023/03/03 05:45:11;;;;;;;0.60;0.60;;;-0.40;99.90;;;;;;5054401;28;20234;-67
2023/03/03 05:47:37;;;;;;;0.60;0.60;;;-0.40;99.90;;;;;;5054167;28;20207;-67
2023/03/03 05:50:03;;;;;;;0.70;0.70;;;-0.40;99.90;;;;;;5054489;28;20200;-67
2023/03/03 05:52:29;;;;;;;0.80;0.80;;;-0.30;99.90;;;;;;5072193;28;20264;-67
2023/03/03 05:54:55;;;;;;;0.60;0.60;;;-0.30;99.90;;;;;;5072514;28;20624;-67
2023/03/03 05:57:21;;;;;;;0.60;0.60;;;-0.30;99.90;;;;;;5072056;28;20269;-68
2023/03/03 05:59:46;;;;;;;0.60;0.60;;;-0.30;99.90;;;;;;5072153;28;20197;-67
2023/03/03 06:02:12;;;;;;;0.60;0.60;;;-0.30;99.90;;;;;;5071746;28;20663;-67
2023/03/03 06:04:38;;;;;;;0.60;0.60;;;-0.30;99.90;;;;;;5072122;28;20200;-67
2023/03/03 06:07:04;;;;;;;0.70;0.70;;;-0.30;99.90;;;;;;5072290;28;20559;-67
2023/03/03 06:09:31;;;;;;;0.57;0.57;;;-0.20;99.90;;;;;;5071876;28;20605;-67
2023/03/03 06:11:57;;;;;;;0.60;0.60;;;-0.10;99.90;;;;;;5072170;28;20193;-67
2023/03/03 06:14:23;;;;;;;0.60;0.60;;;-0.10;99.90;;;;;;5072004;28;20539;-67
2023/03/03 06:16:49;;;;;;;0.60;0.60;;;0.00;99.90;;;;;;5072211;28;20189;-67
2023/03/03 06:19:15;;;;;;;0.63;0.63;;;0.00;99.90;;;;;;5053985;28;20671;-67
2023/03/03 06:21:41;;;;;;;0.50;0.50;;;0.00;99.90;;;;;;5071866;28;20286;-67
2023/03/03 06:24:07;;;;;;;0.60;0.60;;;0.00;99.90;;;;;;5072145;28;20230;-68
2023/03/03 06:26:33;;;;;;;0.50;0.50;;;0.00;99.90;;;;;;5071952;28;20215;-67
2023/03/03 06:29:00;;;;;;;0.50;0.50;;;0.20;99.90;;;;;;5075302;28;20337;-67
2023/03/03 06:31:27;;;;;;;0.70;0.70;;;0.30;99.90;;;;;;5073858;28;20336;-67
2023/03/03 06:33:53;;;;;;;0.60;0.60;;;0.40;99.90;;;;;;5055832;28;20194;-67
2023/03/03 06:36:19;;;;;;;0.63;0.63;;;0.50;99.90;;;;;;5051866;28;20264;-67
2023/03/03 06:38:45;;;;;;;0.60;0.60;;;0.50;99.90;;;;;;5051981;28;20198;-67
2023/03/03 06:41:11;;;;;;;0.70;0.70;;;0.50;99.90;;;;;;5051811;28;20247;-67
2023/03/03 06:43:37;;;;;;;0.70;0.70;;;0.40;99.90;;;;;;5050427;28;20201;-67
2023/03/03 06:46:04;;;;;;;0.80;0.80;;;0.40;99.90;;;;;;5051900;28;20200;-67
2023/03/03 06:48:31;;;;;;;0.50;0.50;;;0.40;99.90;;;;;;5051579;28;20664;-67
2023/03/03 06:51:01;;;;;;;0.65;0.65;;;0.30;99.90;;;;;;5051782;28;20205;-67
2023/03/03 06:53:30;;;;;;;0.60;0.60;;;0.30;99.90;;;;;;5054734;28;20190;-67
2023/03/03 06:55:57;;;;;;;0.60;0.60;;;0.20;99.90;;;;;;5063904;28;20227;-69
2023/03/03 06:58:23;;;;;;;0.60;0.60;;;0.30;99.90;;;;;;5057151;28;20253;-68
2023/03/03 07:01:00;;;;;;;0.60;0.60;;;0.30;99.90;;;;;;5075221;28;20188;-67
2023/03/03 07:03:33;;;;;;;0.60;0.60;;;0.40;99.90;;;;;;5074979;28;20235;-67
2023/03/03 07:06:00;;;;;;;0.50;0.50;;;0.40;99.90;;;;;;5075188;28;20246;-67
2023/03/03 07:08:30;;;;;;;0.80;0.80;;;0.40;99.90;;;;;;5074673;28;20319;-67
2023/03/03 07:11:06;;;;;;;0.70;0.70;;;0.40;99.90;;;;;;5075180;28;20189;-66
2023/03/03 07:13:33;;;;;;;0.70;0.70;;;0.40;99.90;;;;;;5074865;28;20220;-67
2023/03/03 07:16:02;;;;;;;0.60;0.60;;;0.40;99.90;;;;;;5056987;28;20196;-67
2023/03/03 07:18:47;;;;;;;0.57;0.57;;;0.40;99.90;;;;;;5074872;28;20686;-67
2023/03/03 07:21:22;;;;;;;0.70;0.70;;;0.40;99.90;;;;;;5057005;28;20196;-67
2023/03/03 07:23:50;;;;;;;0.60;0.60;;;0.50;99.90;;;;;;5075007;28;20189;-67
2023/03/03 07:26:29;;;;;;;0.52;0.52;;;0.50;99.90;;;;;;5086635;28;20212;-67
2023/03/03 07:29:09;;;;;;;0.60;0.60;;;0.50;99.90;;;;;;5090159;28;20207;-67
2023/03/03 07:31:38;;;;;;;0.60;0.60;;;0.50;99.90;;;;;;5074631;28;20656;-67
2023/03/03 07:34:18;;;;;;;0.60;0.60;;;0.60;99.90;;;;;;5074562;28;20276;-67
2023/03/03 07:36:44;;;;;;;0.60;0.60;;;0.70;99.90;;;;;;5074623;28;20713;-67
2023/03/03 07:39:39;;;;;;;0.70;0.70;;;0.70;99.90;;;;;;5056606;28;20236;-67
2023/03/03 07:42:15;;;;;;;0.60;0.60;;;0.70;99.90;;;;;;5070439;28;20220;-68
2023/03/03 07:44:40;;;;;;;0.60;0.60;;;0.70;99.90;;;;;;5074363;28;20307;-67
2023/03/03 07:47:18;;;;;;;0.63;0.63;;;0.80;99.90;;;;;;5074551;28;20280;-67
2023/03/03 07:49:43;;;;;;;0.52;0.52;;;0.80;99.90;;;;;;5074228;28;20595;-67
2023/03/03 07:52:38;;;;;;;1.02;1.02;;;0.80;99.90;;;;;;5074167;28;20201;-67
2023/03/03 07:55:22;;;;;;;0.60;0.60;;;0.90;99.90;;;;;;5056363;28;20221;-67
2023/03/03 07:57:53;;;;;;;0.60;0.60;;;0.90;99.90;;;;;;5074342;28;20238;-67
2023/03/03 08:00:27;;;;;;;0.52;0.52;;;1.00;99.90;;;;;;5074040;28;20272;-67
2023/03/03 08:03:13;;;;;;;0.57;0.57;;;1.00;99.90;;;;;;5073379;28;20760;-67
2023/03/03 08:05:41;;;;;;;0.70;0.70;;;1.00;99.90;;;;;;5073877;28;20204;-67
2023/03/03 08:08:19;;;;;;;0.57;0.57;;;1.10;99.90;;;;;;5073897;28;20216;-67
2023/03/03 08:10:54;;;;;;;0.73;0.73;;;1.10;99.90;;;;;;5073972;28;20245;-67
2023/03/03 08:13:46;;;;;;;0.50;0.50;;;1.20;99.90;;;;;;5073878;28;20189;-68
2023/03/03 08:16:12;;;;;;;0.50;0.50;;;1.20;99.90;;;;;;5069921;28;20209;-67
2023/03/03 08:18:52;;;;;;;0.60;0.60;;;1.30;99.90;;;;;;5073558;28;20203;-67
2023/03/03 08:21:25;;;;;;;0.50;0.50;;;1.30;99.90;;;;;;5075174;28;20207;-67
2023/03/03 08:23:52;;;;;;;0.70;0.70;;;1.30;99.90;;;;;;5092486;28;20570;-67
2023/03/03 08:26:19;;;;;;;0.50;0.50;;;1.40;99.90;;;;;;5061451;28;20200;-67
2023/03/03 08:28:46;;;;;;;0.60;0.60;;;1.40;99.90;;;;;;5073491;28;20215;-67
2023/03/03 08:31:12;;;;;;;0.55;0.55;;;1.40;99.90;;;;;;5073479;28;20189;-67
2023/03/03 08:33:38;;;;;;;0.65;0.65;;;1.50;99.90;;;;;;5073065;28;20561;-67
2023/03/03 08:36:05;;;;;;;0.60;0.60;;;1.50;99.90;;;;;;5055496;28;20192;-67
2023/03/03 08:38:31;;;;;;;0.70;0.70;;;1.60;99.90;;;;;;5073133;28;20577;-67
2023/03/03 08:40:56;;;;;;;0.60;0.60;;;1.70;99.90;;;;;;5073369;28;20201;-67
2023/03/03 08:43:23;;;;;;;0.60;0.60;;;1.70;99.90;;;;;;5072941;28;20276;-68
2023/03/03 08:45:51;;;;;;;0.63;0.63;;;1.70;99.90;;;;;;5055280;28;20201;-67
2023/03/03 08:48:17;;;;;;;0.60;0.60;;;1.70;99.90;;;;;;5072852;28;20208;-66
2023/03/03 08:50:44;;;;;;;0.60;0.60;;;1.70;99.90;;;;;;5072909;28;20200;-68
2023/03/03 08:53:12;;;;;;;0.70;0.70;;;1.80;99.90;;;;;;5073139;28;20698;-67
2023/03/03 08:55:38;;;;;;;0.55;0.55;;;1.80;99.90;;;;;;5072822;28;20250;-67
2023/03/03 08:58:04;;;;;;;0.65;0.65;;;1.90;99.90;;;;;;5072974;28;20532;-67
2023/03/03 09:00:30;;;;;;;0.60;0.60;;;1.90;99.90;;;;;;5054688;28;20200;-67
2023/03/03 09:02:55;;;;;;;0.70;0.70;;;2.00;99.90;;;;;;5072767;28;20225;-67
2023/03/03 09:05:22;;;;;;;0.60;0.60;;;2.10;99.90;;;;;;5072722;28;20325;-67
2023/03/03 09:07:50;;;;;;;0.70;0.70;;;2.10;99.90;;;;;;5054883;28;20578;-68
2023/03/03 09:10:28;;;;;;;0.60;0.60;;;2.20;99.90;;;;;;5054734;28;20193;-68
2023/03/03 09:12:57;;;;;;;1.02;0.98;;;2.20;99.90;;;;;;5072966;28;20184;-67
2023/03/03 09:15:27;;;;;;;1.80;1.70;;;2.30;99.90;;;;;;5053748;28;20219;-68
2023/03/03 09:17:54;;;;;;;0.50;0.50;;;2.40;99.90;;;;;;5077128;28;20200;-68
2023/03/03 09:20:22;;;;;;;0.60;0.60;;;2.50;99.90;;;;;;5074511;28;20196;-68
2023/03/03 09:22:49;;;;;;;0.60;0.60;;;2.50;99.90;;;;;;5076513;28;20205;-67
2023/03/03 09:25:35;;;;;;;0.50;0.50;;;2.60;99.90;;;;;;5072759;28;20195;-68
2023/03/03 09:28:02;;;;;;;0.60;0.60;;;2.70;99.90;;;;;;5072649;28;20198;-67
2023/03/03 09:30:34;;;;;;;0.60;0.60;;;2.70;99.90;;;;;;5072486;28;20207;-68
2023/03/03 09:33:15;;;;;;;0.60;0.60;;;2.80;99.90;;;;;;5072466;28;20226;-70
2023/03/03 09:35:41;;;;;;;0.60;0.60;;;2.80;99.90;;;;;;5054452;28;20204;-69
2023/03/03 09:38:31;;;;;;;0.70;0.70;;;2.90;99.90;;;;;;5072472;28;20208;-69
2023/03/03 09:41:31;;;;;;;0.60;0.60;;;2.90;99.90;;;;;;5062757;28;20236;-68
2023/03/03 09:44:03;;;;;;;0.60;0.60;;;2.90;99.90;;;;;;5072453;28;20197;-67
2023/03/03 09:46:31;;;;;;;0.60;0.60;;;2.90;99.90;;;;;;5054356;28;20341;-67
2023/03/03 09:49:26;;;;;;;0.60;0.60;;;3.00;99.90;;;;;;5072492;28;20211;-67
2023/03/03 09:52:11;;;;;;;0.60;0.60;;;2.90;99.90;;;;;;5054533;28;20677;-67
2023/03/03 09:55:08;;;;;;;1.30;0.93;;;2.90;99.90;;;;;;5072261;28;20196;-67
2023/03/03 09:58:15;;;;;;;0.50;0.50;;;3.00;99.90;;;;;;5052147;28;20225;-67
2023/03/03 10:01:06;;;;;;;0.60;0.60;;;3.00;99.90;;;;;;5041238;28;20692;-68
2023/03/03 10:03:53;;;;;;;0.50;0.50;;;3.10;99.90;;;;;;5051924;28;20217;-68
2023/03/03 10:06:43;;;;;;;0.70;0.70;;;3.10;99.90;;;;;;5034306;28;20205;-70
2023/03/03 10:09:09;;;;;;;0.50;0.50;;;3.10;99.90;;;;;;5052292;28;20217;-67
2023/03/03 10:11:44;;;;;;;0.50;0.50;;;3.20;99.90;;;;;;5052158;28;20190;-68
2023/03/03 10:14:19;;;;;;;0.70;0.70;;;3.20;99.90;;;;;;5061423;28;20704;-68
2023/03/03 10:17:06;;;;;;;0.60;0.60;;;3.30;99.90;;;;;;5092324;28;20605;-68
2023/03/03 10:19:47;;;;;;;0.65;0.65;;;3.30;99.90;;;;;;5071901;28;20220;-68
2023/03/03 10:22:30;;;;;;;0.52;0.52;;;3.40;99.90;;;;;;5072413;28;20197;-68
2023/03/03 10:25:03;;;;;;;0.50;0.50;;;3.50;99.90;;;;;;5072336;28;20272;-68
2023/03/03 10:27:41;;;;;;;0.60;0.60;;;3.70;99.90;;;;;;5075511;28;20196;-68
2023/03/03 10:30:15;;;;;;;0.60;0.60;;;3.80;99.90;;;;;;5057991;28;20193;-68
2023/03/03 10:33:23;;;;;;;0.73;0.73;;;3.80;99.90;;;;;;5075653;28;20712;-68
2023/03/03 10:36:03;;;;;;;0.50;0.50;;;3.90;99.90;;;;;;5076141;28;20601;-68
2023/03/03 10:38:35;;;;;;;0.60;0.60;;;4.00;99.90;;;;;;5057591;28;20283;-68
2023/03/03 10:41:30;;;;;;;0.60;0.60;;;4.00;99.90;;;;;;5075841;28;20201;-68
2023/03/03 10:44:20;;;;;;;0.65;0.65;;;4.10;99.90;;;;;;5075859;28;20196;-68
2023/03/03 10:47:39;;;;;;;0.68;0.68;;;4.10;99.90;;;;;;5076041;28;20253;-67
2023/03/03 10:50:33;;;;;;;0.68;0.68;;;4.10;99.90;;;;;;4994479;28;20204;-68
2023/03/03 10:53:08;;;;;;;0.60;0.60;;;4.20;99.90;;;;;;5075146;28;20230;-68
2023/03/03 10:55:36;;;;;;;0.60;0.60;;;4.20;99.90;;;;;;5075243;28;20647;-71
2023/03/03 10:58:10;;;;;;;0.60;0.60;;;4.20;99.90;;;;;;5075316;28;20196;-68
2023/03/03 11:00:50;;;;;;;0.60;0.60;;;4.30;99.90;;;;;;5075084;28;20202;-68
2023/03/03 11:03:41;;;;;;;0.65;0.65;;;4.30;99.90;;;;;;5074941;28;20228;-68
2023/03/03 11:06:40;;;;;;;0.60;0.60;;;4.40;99.90;;;;;;5075455;28;20205;-68
2023/03/03 11:09:15;;;;;;;0.65;0.65;;;4.40;99.90;;;;;;5075518;28;20209;-68
2023/03/03 11:11:54;;;;;;;1.08;1.08;;;4.50;99.90;;;;;;5090829;28;20208;-68
2023/03/03 11:14:26;;;;;;;0.70;0.70;;;4.60;99.90;;;;;;5087056;28;20551;-69
2023/03/03 11:17:18;;;;;;;0.90;0.90;;;4.60;99.90;;;;;;5075437;28;20192;-68
2023/03/03 11:20:02;;;;;;;0.80;0.80;;;4.70;99.90;;;;;;5065888;28;20205;-68
2023/03/03 11:22:46;;;;;;;0.60;0.60;;;4.70;99.90;;;;;;5075259;28;20193;-68
2023/03/03 11:25:16;;;;;;;0.60;0.60;;;4.80;99.90;;;;;;5075376;28;20275;-68
2023/03/03 11:27:53;;;;;;;0.70;0.70;;;4.80;99.90;;;;;;5057336;28;20214;-69
2023/03/03 11:30:38;;;;;;;0.60;0.60;;;4.80;99.90;;;;;;5074996;28;20193;-70
2023/03/03 11:33:19;;;;;;;0.60;0.60;;;4.80;99.90;;;;;;5074820;28;20193;-68
2023/03/03 11:36:14;;;;;;;0.68;0.68;;;4.90;99.90;;;;;;5057109;28;20193;-69
2023/03/03 11:38:59;;;;;;;0.60;0.60;;;4.90;99.90;;;;;;5054163;28;20232;-69
2023/03/03 11:41:42;;;;;;;0.75;0.75;;;5.00;99.90;;;;;;5054861;28;20193;-69
2023/03/03 11:44:17;;;;;;;0.50;0.50;;;5.20;99.90;;;;;;5054873;28;20721;-68
2023/03/03 11:46:46;;;;;;;0.60;0.60;;;5.20;99.90;;;;;;5054750;28;20258;-68
2023/03/03 11:49:31;;;;;;;0.60;0.60;;;5.20;99.90;;;;;;5068157;28;20216;-69
2023/03/03 11:52:21;;;;;;;0.70;0.70;;;5.30;99.90;;;;;;5074907;28;20623;-69
2023/03/03 11:55:16;;;;;;;0.70;0.70;;;5.40;99.90;;;;;;5074880;28;20184;-69
2023/03/03 11:58:27;;;;;;;0.60;0.60;;;5.50;99.90;;;;;;5075166;28;20196;-69
2023/03/03 12:01:28;;;;;;;0.63;0.63;;;5.60;99.90;;;;;;4993425;28;20203;-69
2023/03/03 12:04:17;;;;;;;0.68;0.68;;;5.70;99.90;;;;;;4976562;28;20281;-69
2023/03/03 12:06:55;;;;;;;0.60;0.60;;;5.80;99.90;;;;;;4997994;28;20226;-69
2023/03/03 12:09:45;;;;;;;0.52;0.52;;;5.80;99.90;;;;;;4996049;28;20219;-69
2023/03/03 12:12:20;;;;;;;0.50;0.50;;;5.80;99.90;;;;;;4989730;28;20247;-68
2023/03/03 12:15:00;;;;;;;0.70;0.70;;;5.90;99.90;;;;;;4973786;28;20641;-69
2023/03/03 12:17:42;;;;;;;0.50;0.50;;;5.70;99.90;;;;;;4989535;28;20196;-68
2023/03/03 12:20:50;;;;;;;0.60;0.60;;;5.70;99.90;;;;;;4973441;28;20756;-69
2023/03/03 12:23:34;;;;;;;0.80;0.80;;;5.70;99.90;;;;;;4973523;28;20207;-69
2023/03/03 12:26:56;;;;;;;0.50;0.50;;;5.60;99.90;;;;;;4973331;28;20208;-69
2023/03/03 12:29:39;;;;;;;0.60;0.60;;;5.50;99.90;;;;;;4948550;28;20256;-69
2023/03/03 12:32:26;;;;;;;0.70;0.70;;;5.40;99.90;;;;;;5024577;28;20284;-69
2023/03/03 12:35:04;;;;;;;0.68;0.68;;;5.40;99.90;;;;;;5034153;28;20247;-69
2023/03/03 12:38:07;;;;;;;0.60;0.60;;;5.40;99.90;;;;;;5032696;28;20190;-69
2023/03/03 12:40:39;;;;;;;0.60;0.60;;;5.50;99.90;;;;;;5032263;28;20189;-69
2023/03/03 12:43:11;;;;;;;1.17;1.08;;;5.50;99.90;;;;;;5034236;28;20194;-69
2023/03/03 12:46:03;;;;;;;0.60;0.60;;;5.50;99.90;;;;;;5047674;28;20283;-69
2023/03/03 12:48:34;;;;;;;0.60;0.60;;;5.60;99.90;;;;;;5053603;28;20201;-69
2023/03/03 12:51:48;;;;;;;0.60;0.60;;;5.70;99.90;;;;;;5053415;28;20620;-68
2023/03/03 12:54:34;;;;;;;0.60;0.60;;;5.70;99.90;;;;;;5047804;28;20209;-69
2023/03/03 12:57:05;;;;;;;0.60;0.60;;;5.70;99.90;;;;;;5053244;28;20214;-69
2023/03/03 13:00:07;;;;;;;0.60;0.60;;;5.70;99.90;;;;;;5053417;28;20201;-69
2023/03/03 13:02:57;;;;;;;0.63;0.63;;;5.80;99.90;;;;;;5053275;28;20217;-68
2023/03/03 13:05:25;;;;;;;0.70;0.70;;;5.80;99.90;;;;;;5071407;28;20214;-69
2023/03/03 13:08:30;;;;;;;0.60;0.60;;;6.00;99.90;;;;;;5056402;28;20213;-68
2023/03/03 13:11:13;;;;;;;0.60;0.60;;;6.10;99.90;;;;;;5022167;28;20216;-69
2023/03/03 13:13:59;;;;;;;2.00;1.45;;;6.30;99.90;;;;;;5052266;28;20212;-69
2023/03/03 13:16:54;;;;;;;0.60;0.60;;;6.60;99.90;;;;;;5053097;28;20603;-69
2023/03/03 13:19:29;;;;;;;0.60;0.60;;;7.00;99.90;;;;;;5052633;28;20216;-69
2023/03/03 13:22:07;;;;;;;0.60;0.60;;;7.20;99.90;;;;;;5053493;28;20594;-69
2023/03/03 13:24:38;;;;;;;0.60;0.60;;;7.20;99.00;;;;;;5052160;28;20675;-69
2023/03/03 13:27:15;;;;;;;0.68;0.68;;;6.90;99.60;;;;;;5053230;28;20202;-69
2023/03/03 13:29:46;;;;;;;0.68;0.68;;;6.90;99.30;;;;;;5051400;28;20219;-69